createdAt,value
2019-03-06T00:00:51.645Z,5.40
2019-03-06T00:03:20.669Z,4.40
2019-03-06T00:05:55.058Z,5.07
2019-03-06T00:08:30.725Z,4.47
2019-03-06T00:10:59.873Z,5.20
2019-03-06T00:13:29.682Z,5.33
2019-03-06T00:15:58.629Z,4.90
2019-03-06T00:18:30.861Z,5.20
2019-03-06T00:20:59.899Z,4.90
2019-03-06T00:23:31.271Z,5.87
2019-03-06T00:26:00.197Z,4.70
2019-03-06T00:28:28.984Z,5.10
2019-03-06T00:30:58.917Z,5.20
2019-03-06T00:33:28.885Z,5.10
2019-03-06T00:36:02.417Z,5.20
2019-03-06T00:38:33.842Z,5.30
2019-03-06T00:41:14.449Z,6.20
2019-03-06T00:43:43.245Z,6.60
2019-03-06T00:46:12.267Z,6.37
2019-03-06T00:48:41.050Z,6.63
2019-03-06T00:51:10.059Z,6.80
2019-03-06T00:53:38.868Z,6.90
2019-03-06T00:56:07.824Z,7.90
2019-03-06T00:58:36.669Z,7.17
2019-03-06T01:01:05.634Z,8.03
2019-03-06T01:03:38.143Z,8.47
2019-03-06T01:06:09.709Z,9.17
2019-03-06T01:08:38.577Z,9.00
2019-03-06T01:11:08.449Z,8.73
2019-03-06T01:13:37.318Z,9.50
2019-03-06T01:16:06.254Z,10.20
2019-03-06T01:18:35.121Z,9.73
2019-03-06T01:21:06.626Z,10.40
2019-03-06T01:23:38.010Z,10.00
2019-03-06T01:26:07.172Z,10.70
2019-03-06T01:28:38.652Z,10.00
2019-03-06T01:31:07.611Z,10.97
2019-03-06T01:34:02.162Z,10.47
2019-03-06T01:36:51.701Z,10.93
2019-03-06T01:39:48.846Z,11.30
2019-03-06T01:42:24.967Z,10.70
2019-03-06T01:45:01.098Z,11.60
2019-03-06T01:47:31.100Z,11.53
2019-03-06T01:50:01.861Z,11.53
2019-03-06T01:52:30.661Z,10.70
2019-03-06T01:54:59.828Z,10.60
2019-03-06T01:57:28.622Z,11.13
2019-03-06T01:59:57.527Z,10.97
2019-03-06T02:02:29.030Z,11.87
2019-03-06T02:04:58.963Z,11.87
2019-03-06T02:07:27.919Z,11.60
2019-03-06T02:09:57.109Z,12.17
2019-03-06T02:12:31.269Z,11.50
2019-03-06T02:14:59.982Z,12.37
2019-03-06T02:17:28.861Z,11.50
2019-03-06T02:19:57.687Z,11.93
2019-03-06T02:22:31.559Z,11.00
2019-03-06T02:25:00.525Z,12.07
2019-03-06T02:27:30.511Z,11.77
2019-03-06T02:29:59.588Z,10.70
2019-03-06T02:32:30.665Z,11.80
2019-03-06T02:35:00.589Z,11.63
2019-03-06T02:37:29.442Z,11.57
2019-03-06T02:39:58.395Z,11.83
2019-03-06T02:42:27.555Z,11.00
2019-03-06T02:44:57.676Z,12.07
2019-03-06T02:47:26.509Z,11.10
2019-03-06T02:49:55.382Z,11.43
2019-03-06T02:52:25.067Z,11.47
2019-03-06T02:54:54.230Z,11.87
2019-03-06T02:57:23.039Z,11.80
2019-03-06T03:00:21.293Z,11.53
2019-03-06T03:02:59.755Z,11.57
2019-03-06T03:05:39.624Z,11.87
2019-03-06T03:08:10.623Z,12.00
2019-03-06T03:13:36.229Z,11.97
2019-03-06T03:16:07.537Z,12.63
2019-03-06T03:18:42.606Z,13.00
2019-03-06T03:21:16.829Z,12.30
2019-03-06T03:23:45.706Z,13.20
2019-03-06T03:26:14.595Z,13.67
2019-03-06T03:28:43.490Z,13.03
2019-03-06T03:31:12.371Z,15.13
2019-03-06T03:33:41.166Z,14.50
2019-03-06T03:36:10.173Z,15.10
2019-03-06T03:38:38.975Z,15.67
2019-03-06T03:41:07.959Z,15.07
2019-03-06T03:43:37.180Z,15.60
2019-03-06T03:46:08.681Z,16.20
2019-03-06T03:48:37.549Z,15.80
2019-03-06T03:51:06.369Z,17.57
2019-03-06T03:53:35.259Z,18.07
2019-03-06T03:56:04.469Z,16.47
2019-03-06T03:58:33.392Z,16.70
2019-03-06T04:01:02.340Z,16.93
2019-03-06T04:03:32.511Z,17.03
2019-03-06T04:06:07.358Z,16.80
2019-03-06T04:08:35.536Z,17.17
2019-03-06T04:11:05.540Z,16.17
2019-03-06T04:13:34.757Z,14.80
2019-03-06T04:16:03.722Z,14.33
2019-03-06T04:18:32.610Z,14.33
2019-03-06T04:21:01.676Z,14.90
2019-03-06T04:23:30.510Z,14.47
2019-03-06T04:25:59.322Z,14.20
2019-03-06T04:28:29.529Z,13.77
2019-03-06T04:30:58.323Z,14.07
2019-03-06T04:33:27.302Z,14.97
2019-03-06T04:35:57.212Z,15.17
2019-03-06T04:38:27.056Z,14.40
2019-03-06T04:40:57.513Z,14.13
2019-03-06T04:43:26.310Z,15.00
2019-03-06T04:45:59.226Z,14.73
2019-03-06T04:48:35.267Z,14.87
2019-03-06T04:51:06.026Z,14.73
2019-03-06T04:53:34.922Z,16.83
2019-03-06T04:56:08.357Z,16.13
2019-03-06T04:58:41.632Z,16.70
2019-03-06T05:01:10.561Z,15.97
2019-03-06T05:03:43.666Z,17.80
2019-03-06T05:06:14.696Z,16.90
2019-03-06T05:08:48.225Z,18.87
2019-03-06T05:11:17.231Z,18.57
2019-03-06T05:13:52.198Z,17.70
2019-03-06T05:16:46.150Z,18.60
2019-03-06T05:19:14.982Z,18.10
2019-03-06T05:21:44.911Z,19.40
2019-03-06T05:24:18.198Z,19.57
2019-03-06T05:26:51.657Z,18.23
2019-03-06T05:29:21.558Z,18.93
2019-03-06T05:32:26.790Z,19.57
2019-03-06T05:35:00.627Z,19.03
2019-03-06T05:37:57.370Z,19.37
2019-03-06T05:40:29.378Z,20.50
2019-03-06T05:42:58.979Z,20.57
2019-03-06T05:45:37.790Z,20.70
2019-03-06T05:48:06.657Z,20.30
2019-03-06T05:50:40.910Z,19.33
2019-03-06T05:53:09.712Z,18.80
2019-03-06T05:55:45.141Z,19.77
2019-03-06T05:58:18.593Z,19.07
2019-03-06T06:00:51.213Z,19.27
2019-03-06T06:03:21.320Z,20.20
2019-03-06T06:05:56.467Z,18.53
2019-03-06T06:08:30.613Z,20.90
2019-03-06T06:11:00.948Z,19.27
2019-03-06T06:13:35.234Z,19.57
2019-03-06T06:16:04.166Z,19.20
2019-03-06T06:18:36.978Z,18.50
2019-03-06T06:21:34.170Z,18.73
2019-03-06T06:24:09.545Z,18.80
2019-03-06T06:26:42.052Z,18.07
2019-03-06T06:29:20.964Z,18.87
2019-03-06T06:31:59.532Z,17.37
2019-03-06T06:34:34.076Z,17.53
2019-03-06T06:37:20.842Z,17.13
2019-03-06T06:39:54.834Z,17.67
2019-03-06T06:42:32.389Z,17.50
2019-03-06T06:45:06.719Z,17.40
2019-03-06T06:48:18.959Z,17.80
2019-03-06T06:51:11.053Z,16.27
2019-03-06T06:53:53.273Z,16.40
2019-03-06T06:57:25.715Z,17.07
2019-03-06T07:00:29.438Z,16.67
2019-03-06T07:03:46.712Z,15.90
2019-03-06T07:06:27.236Z,16.07
2019-03-06T07:09:26.284Z,15.87
2019-03-06T07:12:11.580Z,16.37
2019-03-06T07:15:13.830Z,15.83
2019-03-06T07:18:07.294Z,15.77
2019-03-06T07:20:58.080Z,14.80
2019-03-06T07:23:46.959Z,14.87
2019-03-06T07:26:47.476Z,14.30
2019-03-06T07:30:00.446Z,15.23
2019-03-06T07:32:52.597Z,15.10
2019-03-06T07:36:13.205Z,14.20
2019-03-06T07:38:46.089Z,13.83
2019-03-06T07:41:42.538Z,16.23
2019-03-06T07:44:32.774Z,14.33
2019-03-06T07:47:37.113Z,14.07
2019-03-06T07:50:41.343Z,14.23
2019-03-06T07:54:10.603Z,14.63
2019-03-06T07:57:09.396Z,13.30
2019-03-06T07:59:53.157Z,13.60
2019-03-06T08:02:42.026Z,14.33
2019-03-06T08:05:28.328Z,12.87
2019-03-06T08:08:05.236Z,13.40
2019-03-06T08:10:45.052Z,12.33
2019-03-06T08:13:41.246Z,12.10
2019-03-06T08:16:37.006Z,12.87
2019-03-06T08:19:18.064Z,11.33
2019-03-06T08:22:19.426Z,11.27
2019-03-06T08:25:23.769Z,10.70
2019-03-06T08:27:57.267Z,10.57
2019-03-06T08:30:45.120Z,11.33
2019-03-06T08:33:19.020Z,11.33
2019-03-06T08:35:59.462Z,10.97
2019-03-06T08:38:45.159Z,11.40
2019-03-06T08:41:24.019Z,11.27
2019-03-06T08:43:53.248Z,12.13
2019-03-06T08:46:51.896Z,11.20
2019-03-06T08:49:45.138Z,11.80
2019-03-06T08:52:42.187Z,11.73
2019-03-06T08:55:48.154Z,12.00
2019-03-06T08:58:40.085Z,12.37
2019-03-06T09:02:00.841Z,12.83
2019-03-06T09:04:57.019Z,12.07
2019-03-06T09:07:57.648Z,11.00
2019-03-06T09:10:48.845Z,11.37
2019-03-06T09:13:54.540Z,11.57
2019-03-06T09:16:56.128Z,11.73
2019-03-06T09:19:57.093Z,11.33
2019-03-06T09:22:49.407Z,11.30
2019-03-06T09:25:52.895Z,11.47
2019-03-06T09:28:50.157Z,11.40
2019-03-06T09:31:42.432Z,11.90
2019-03-06T09:34:51.738Z,10.63
2019-03-06T09:37:46.807Z,11.53
2019-03-06T09:40:30.538Z,10.53
2019-03-06T09:43:34.717Z,10.70
2019-03-06T09:46:20.256Z,10.73
2019-03-06T09:49:23.322Z,10.83
2019-03-06T09:52:38.038Z,11.03
2019-03-06T09:55:31.624Z,11.00
2019-03-06T09:58:40.116Z,11.30
2019-03-06T10:01:38.207Z,10.93
2019-03-06T10:04:24.776Z,10.53
2019-03-06T10:07:20.223Z,10.23
2019-03-06T10:10:14.056Z,10.60
2019-03-06T10:13:10.286Z,11.23
2019-03-06T10:16:15.227Z,10.97
2019-03-06T10:18:57.878Z,10.73
2019-03-06T10:21:28.961Z,10.43
2019-03-06T10:24:01.359Z,10.70
2019-03-06T10:26:30.740Z,9.40
2019-03-06T10:28:59.600Z,10.80
2019-03-06T10:31:33.414Z,11.07
2019-03-06T10:34:03.503Z,11.33
2019-03-06T10:36:36.960Z,11.63
2019-03-06T10:39:09.274Z,11.90
2019-03-06T10:41:43.790Z,11.87
2019-03-06T10:44:28.777Z,10.87
2019-03-06T10:46:53.855Z,11.73
2019-03-06T10:49:29.452Z,11.93
2019-03-06T10:52:01.956Z,11.53
2019-03-06T10:54:31.514Z,11.50
2019-03-06T10:57:07.992Z,12.07
2019-03-06T10:59:43.311Z,11.13
2019-03-06T11:02:12.501Z,12.90
2019-03-06T11:04:47.194Z,11.90
2019-03-06T11:07:16.464Z,11.97
2019-03-06T11:09:47.833Z,12.43
2019-03-06T11:12:18.294Z,13.57
2019-03-06T11:14:53.413Z,13.40
2019-03-06T11:17:22.384Z,12.63
2019-03-06T11:19:57.097Z,12.07
2019-03-06T11:22:26.060Z,12.23
2019-03-06T11:25:01.164Z,12.77
2019-03-06T11:27:30.138Z,11.73
2019-03-06T11:30:00.676Z,11.83
2019-03-06T11:32:29.920Z,12.63
2019-03-06T11:35:03.265Z,11.30
2019-03-06T11:37:35.469Z,11.50
2019-03-06T11:40:06.915Z,10.17
2019-03-06T11:42:37.008Z,11.37
2019-03-06T11:45:07.051Z,11.07
2019-03-06T11:47:35.916Z,10.63
2019-03-06T11:50:07.893Z,11.37
2019-03-06T11:52:36.851Z,10.87
2019-03-06T11:55:07.518Z,11.13
2019-03-06T11:57:47.676Z,11.00
2019-03-06T12:00:29.249Z,10.73
2019-03-06T12:03:00.197Z,10.73
2019-03-06T12:05:30.641Z,10.23
2019-03-06T12:08:04.148Z,10.43
2019-03-06T12:10:34.153Z,9.87
2019-03-06T12:13:07.074Z,9.00
2019-03-06T12:15:44.996Z,10.17
2019-03-06T12:18:12.282Z,9.00
2019-03-06T12:20:41.325Z,9.07
2019-03-06T12:23:11.494Z,8.90
2019-03-06T12:25:42.098Z,8.93
2019-03-06T12:28:13.271Z,9.80
2019-03-06T12:30:43.623Z,8.57
2019-03-06T12:33:26.116Z,8.23
2019-03-06T12:35:57.689Z,8.80
2019-03-06T12:38:29.319Z,7.70
2019-03-06T12:40:58.243Z,8.50
2019-03-06T12:43:29.383Z,8.30
2019-03-06T12:46:24.379Z,7.97
2019-03-06T12:49:09.015Z,7.77
2019-03-06T12:51:54.424Z,7.70
2019-03-06T12:54:21.368Z,7.20
2019-03-06T12:56:51.352Z,7.47
2019-03-06T12:59:20.356Z,7.67
2019-03-06T13:01:52.545Z,7.90
2019-03-06T13:04:34.850Z,7.47
2019-03-06T13:07:03.410Z,7.87
2019-03-06T13:09:38.682Z,7.17
2019-03-06T13:12:10.642Z,6.97
2019-03-06T13:14:41.685Z,6.97
2019-03-06T13:17:25.312Z,6.63
2019-03-06T13:20:05.799Z,6.87
2019-03-06T13:22:34.809Z,6.70
2019-03-06T13:25:12.617Z,7.50
2019-03-06T13:27:57.196Z,6.40
2019-03-06T13:30:34.368Z,6.33
2019-03-06T13:33:19.962Z,6.70
2019-03-06T13:35:56.533Z,5.93
2019-03-06T13:38:25.640Z,6.20
2019-03-06T13:40:55.833Z,6.13
2019-03-06T13:43:24.631Z,5.73
2019-03-06T13:46:00.195Z,5.90
2019-03-06T13:48:34.417Z,5.83
2019-03-06T13:51:05.040Z,5.70
2019-03-06T13:53:40.925Z,6.23
2019-03-06T13:56:23.054Z,5.77
2019-03-06T13:58:57.089Z,5.87
2019-03-06T14:01:32.768Z,6.67
2019-03-06T14:04:09.543Z,6.30
2019-03-06T14:06:49.992Z,5.90
2019-03-06T14:09:20.943Z,5.87
2019-03-06T14:11:53.637Z,5.57
2019-03-06T14:14:22.509Z,5.30
2019-03-06T14:16:51.467Z,5.60
2019-03-06T14:19:23.745Z,4.90
2019-03-06T14:21:55.518Z,4.73
2019-03-06T14:24:24.329Z,4.47
2019-03-06T14:26:53.205Z,4.47
2019-03-06T14:29:23.574Z,4.77
2019-03-06T14:31:52.602Z,4.30
2019-03-06T14:34:25.659Z,4.83
2019-03-06T14:36:56.231Z,4.90
2019-03-06T14:39:30.323Z,5.07
2019-03-06T14:42:03.134Z,5.47
2019-03-06T14:44:33.103Z,4.87
2019-03-06T14:47:02.134Z,6.47
2019-03-06T14:49:33.715Z,5.90
2019-03-06T14:52:09.314Z,6.23
2019-03-06T14:54:42.829Z,6.30
2019-03-06T14:57:13.919Z,6.27
2019-03-06T14:59:45.358Z,5.47
2019-03-06T15:02:14.365Z,5.93
2019-03-06T15:04:44.435Z,5.67
2019-03-06T15:07:13.385Z,6.40
2019-03-06T15:09:47.626Z,6.20
2019-03-06T15:12:21.236Z,5.67
2019-03-06T15:14:52.329Z,5.73
2019-03-06T15:17:22.415Z,5.30
2019-03-06T15:19:52.455Z,5.37
2019-03-06T15:22:22.407Z,4.77
2019-03-06T15:24:56.579Z,5.77
2019-03-06T15:27:29.884Z,5.23
2019-03-06T15:30:01.449Z,4.97
2019-03-06T15:32:30.352Z,5.07
2019-03-06T15:34:59.147Z,4.10
2019-03-06T15:37:28.327Z,5.13
2019-03-06T15:40:09.547Z,5.13
2019-03-06T15:42:46.375Z,4.70
2019-03-06T15:45:21.488Z,4.80
2019-03-06T15:47:59.559Z,4.57
2019-03-06T15:50:29.753Z,5.10
2019-03-06T15:52:58.711Z,4.30
2019-03-06T15:55:33.253Z,4.87
2019-03-06T15:58:03.268Z,4.83
2019-03-06T16:00:33.664Z,5.23
2019-03-06T16:03:07.664Z,4.57
2019-03-06T16:05:37.056Z,4.87
2019-03-06T16:08:10.370Z,4.63
2019-03-06T16:10:43.664Z,4.60
2019-03-06T16:13:14.923Z,4.53
2019-03-06T16:15:43.782Z,4.83
2019-03-06T16:18:14.931Z,4.70
2019-03-06T16:20:49.254Z,4.67
2019-03-06T16:23:24.914Z,5.17
2019-03-06T16:25:53.870Z,6.57
2019-03-06T16:28:45.225Z,5.43
2019-03-06T16:31:10.766Z,5.00
2019-03-06T16:33:50.801Z,5.03
2019-03-06T16:37:35.993Z,4.37
2019-03-06T16:40:50.977Z,5.43
2019-03-06T16:43:26.211Z,5.47
2019-03-06T16:46:04.001Z,5.23
2019-03-06T16:48:35.282Z,4.83
2019-03-06T16:51:13.822Z,4.80
2019-03-06T16:53:45.411Z,4.68
2019-03-06T16:56:35.407Z,5.60
2019-03-06T16:59:09.631Z,5.10
2019-03-06T17:01:50.662Z,5.50
2019-03-06T17:04:16.092Z,4.97
2019-03-06T17:06:52.745Z,4.93
2019-03-06T17:09:23.299Z,4.70
2019-03-06T17:11:52.313Z,5.57
2019-03-06T17:14:19.022Z,5.40
2019-03-06T17:16:46.690Z,4.77
2019-03-06T17:19:13.565Z,5.27
2019-03-06T17:21:41.197Z,5.50
2019-03-06T17:24:10.351Z,5.83
2019-03-06T17:26:42.417Z,5.70
2019-03-06T17:29:11.654Z,5.37
2019-03-06T17:31:38.853Z,6.10
2019-03-06T17:34:05.635Z,6.10
2019-03-06T17:36:32.734Z,5.90
2019-03-06T17:38:59.260Z,6.40
2019-03-06T17:41:31.495Z,6.33
2019-03-06T17:43:58.305Z,5.50
2019-03-06T17:46:26.197Z,5.57
2019-03-06T17:48:53.934Z,5.27
2019-03-06T17:51:20.578Z,5.53
2019-03-06T17:53:47.291Z,5.83
2019-03-06T17:56:15.025Z,5.37
2019-03-06T17:58:41.548Z,4.87
2019-03-06T18:01:15.093Z,4.90
2019-03-06T18:03:51.470Z,5.40
2019-03-06T18:06:21.474Z,4.83
2019-03-06T18:08:48.081Z,4.90
2019-03-06T18:11:19.994Z,5.40
2019-03-06T18:13:47.834Z,5.07
2019-03-06T18:16:14.361Z,5.23
2019-03-06T18:18:52.389Z,4.90
2019-03-06T18:21:34.599Z,5.43
2019-03-06T18:24:00.876Z,5.03
2019-03-06T18:26:27.769Z,5.67
2019-03-06T18:28:58.596Z,4.80
2019-03-06T18:31:26.811Z,5.13
2019-03-06T18:33:54.903Z,5.10
2019-03-06T18:36:21.778Z,5.87
2019-03-06T18:38:55.071Z,5.50
2019-03-06T18:41:27.171Z,5.80
2019-03-06T18:43:55.126Z,5.93
2019-03-06T18:46:26.182Z,5.43
2019-03-06T18:49:03.272Z,5.43
2019-03-06T18:51:29.941Z,6.83
2019-03-06T18:53:56.810Z,5.80
2019-03-06T18:56:24.700Z,5.50
2019-03-06T18:58:51.540Z,5.67
2019-03-06T19:01:22.595Z,5.47
2019-03-06T19:03:59.966Z,5.47
2019-03-06T19:06:26.862Z,5.40
2019-03-06T19:08:53.666Z,5.53
2019-03-06T19:11:24.517Z,5.73
2019-03-06T19:13:54.306Z,5.90
2019-03-06T19:16:26.646Z,5.53
2019-03-06T19:18:57.423Z,6.30
2019-03-06T19:21:27.696Z,6.33
2019-03-06T19:23:54.133Z,6.50
2019-03-06T19:26:23.153Z,6.07
2019-03-06T19:28:51.060Z,6.17
2019-03-06T19:31:17.949Z,6.80
2019-03-06T19:33:44.923Z,6.27
2019-03-06T19:36:12.847Z,6.07
2019-03-06T19:38:39.775Z,6.33
2019-03-06T19:41:19.432Z,5.53
2019-03-06T19:43:46.294Z,6.57
2019-03-06T19:46:24.596Z,6.07
2019-03-06T19:48:51.484Z,6.37
2019-03-06T19:51:24.702Z,6.53
2019-03-06T19:53:52.652Z,5.80
2019-03-06T19:56:19.469Z,6.67
2019-03-06T19:58:49.636Z,6.67
2019-03-06T20:01:16.477Z,6.30
2019-03-06T20:03:43.302Z,6.73
2019-03-06T20:06:12.473Z,6.40
2019-03-06T20:08:39.340Z,6.13
2019-03-06T20:11:06.268Z,5.97
2019-03-06T20:13:36.073Z,6.63
2019-03-06T20:16:05.493Z,6.63
2019-03-06T20:18:33.403Z,6.80
2019-03-06T20:21:01.241Z,6.43
2019-03-06T20:23:28.241Z,6.63
2019-03-06T20:25:56.177Z,6.07
2019-03-06T20:28:27.155Z,6.57
2019-03-06T20:30:54.033Z,6.83
2019-03-06T20:33:21.181Z,6.40
2019-03-06T20:35:50.820Z,7.10
2019-03-06T20:38:17.687Z,6.77
2019-03-06T20:40:44.554Z,6.40
2019-03-06T20:43:13.546Z,6.33
2019-03-06T20:45:43.377Z,6.47
2019-03-06T20:48:13.071Z,6.20
2019-03-06T20:50:48.441Z,6.50
2019-03-06T20:53:18.719Z,6.23
2019-03-06T20:55:48.729Z,7.00
2019-03-06T20:58:22.214Z,6.13
2019-03-06T21:00:51.809Z,5.97
2019-03-06T21:03:20.960Z,6.43
2019-03-06T21:05:48.894Z,5.77
2019-03-06T21:08:20.694Z,6.60
2019-03-06T21:10:49.866Z,6.10
2019-03-06T21:13:18.531Z,6.00
2019-03-06T21:15:45.359Z,6.10
2019-03-06T21:18:12.295Z,6.17
2019-03-06T21:20:41.373Z,5.73
2019-03-06T21:23:10.269Z,6.07
2019-03-06T21:25:37.133Z,5.80
2019-03-06T21:28:07.535Z,5.83
2019-03-06T21:30:40.522Z,5.87
2019-03-06T21:33:10.813Z,6.10
2019-03-06T21:35:39.083Z,5.90
2019-03-06T21:38:05.946Z,6.30
2019-03-06T21:40:34.007Z,5.70
2019-03-06T21:43:00.834Z,6.07
2019-03-06T21:45:33.807Z,6.20
2019-03-06T21:48:00.919Z,6.27
2019-03-06T21:50:29.580Z,6.33
2019-03-06T21:52:56.512Z,6.50
2019-03-06T21:55:29.139Z,5.37
2019-03-06T21:57:56.051Z,6.47
2019-03-06T22:00:24.228Z,6.30
2019-03-06T22:02:52.071Z,6.20
2019-03-06T22:05:22.431Z,5.97
2019-03-06T22:07:52.277Z,5.30
2019-03-06T22:10:22.806Z,5.87
2019-03-06T22:12:49.619Z,6.13
2019-03-06T22:15:16.451Z,5.23
2019-03-06T22:17:46.241Z,5.83
2019-03-06T22:20:14.423Z,5.60
2019-03-06T22:22:42.322Z,5.30
2019-03-06T22:25:14.192Z,5.10
2019-03-06T22:27:43.081Z,5.37
2019-03-06T22:30:16.321Z,5.13
2019-03-06T22:32:44.845Z,5.63
2019-03-06T22:35:20.074Z,5.20
2019-03-06T22:37:49.769Z,5.57
2019-03-06T22:40:17.513Z,6.07
2019-03-06T22:42:46.476Z,4.83
2019-03-06T22:45:13.336Z,5.87
2019-03-06T22:47:45.859Z,5.53
2019-03-06T22:50:13.050Z,5.63
2019-03-06T22:52:40.994Z,4.87
2019-03-06T22:55:12.484Z,5.40
2019-03-06T22:57:39.343Z,5.47
2019-03-06T23:00:20.173Z,5.87
2019-03-06T23:02:54.152Z,5.17
2019-03-06T23:05:25.911Z,4.90
2019-03-06T23:07:56.619Z,5.00
2019-03-06T23:10:27.124Z,4.97
2019-03-06T23:13:00.158Z,4.93
2019-03-06T23:15:27.112Z,4.80
2019-03-06T23:17:55.834Z,4.47
2019-03-06T23:20:22.675Z,4.93
2019-03-06T23:22:51.549Z,4.20
2019-03-06T23:25:24.295Z,3.90
2019-03-06T23:27:52.141Z,3.47
2019-03-06T23:30:21.310Z,3.40
2019-03-06T23:32:51.319Z,3.40
2019-03-06T23:35:19.560Z,3.90
2019-03-06T23:37:50.503Z,4.03
2019-03-06T23:40:20.992Z,3.30
2019-03-06T23:42:49.625Z,3.57
2019-03-06T23:45:16.473Z,3.50
2019-03-06T23:47:43.377Z,3.57
2019-03-06T23:50:13.371Z,3.93
2019-03-06T23:53:04.276Z,3.07
2019-03-06T23:55:35.242Z,3.30
2019-03-06T23:58:05.749Z,3.30
